sensor_id;sensor_type;location;lat;lon;timestamp;pressure;altitude;pressure_sealevel;temperature;humidity
6038;BME280;3047;42.600;23.470;2022-07-25T00:02:00;93200.81;;;24.34;75.37
6038;BME280;3047;42.600;23.470;2022-07-25T00:04:27;93190.06;;;24.29;75.36
6038;BME280;3047;42.600;23.470;2022-07-25T00:06:54;93194.03;;;24.33;75.58
6038;BME280;3047;42.600;23.470;2022-07-25T00:09:21;93171.03;;;24.30;75.66
6038;BME280;3047;42.600;23.470;2022-07-25T00:11:48;93184.66;;;24.32;75.81
6038;BME280;3047;42.600;23.470;2022-07-25T00:14:15;93183.25;;;24.28;76.00
6038;BME280;3047;42.600;23.470;2022-07-25T00:16:43;93186.41;;;24.31;76.36
6038;BME280;3047;42.600;23.470;2022-07-25T00:19:09;93186.44;;;24.20;76.85
6038;BME280;3047;42.600;23.470;2022-07-25T00:21:36;93189.97;;;24.19;77.23
6038;BME280;3047;42.600;23.470;2022-07-25T00:24:03;93190.69;;;24.10;77.88
6038;BME280;3047;42.600;23.470;2022-07-25T00:26:30;93179.75;;;24.17;77.34
6038;BME280;3047;42.600;23.470;2022-07-25T00:28:57;93182.50;;;24.05;77.96
6038;BME280;3047;42.600;23.470;2022-07-25T00:31:23;93182.25;;;24.08;77.99
6038;BME280;3047;42.600;23.470;2022-07-25T00:33:52;93185.66;;;24.08;78.09
6038;BME280;3047;42.600;23.470;2022-07-25T00:36:18;93168.34;;;23.99;78.38
6038;BME280;3047;42.600;23.470;2022-07-25T00:38:45;93161.50;;;23.98;77.96
6038;BME280;3047;42.600;23.470;2022-07-25T00:41:12;93178.59;;;24.10;78.30
6038;BME280;3047;42.600;23.470;2022-07-25T00:43:41;93179.19;;;24.14;78.27
6038;BME280;3047;42.600;23.470;2022-07-25T00:46:11;93171.91;;;24.19;79.45
6038;BME280;3047;42.600;23.470;2022-07-25T00:48:38;93177.88;;;24.20;80.17
6038;BME280;3047;42.600;23.470;2022-07-25T00:51:07;93167.38;;;24.11;80.82
6038;BME280;3047;42.600;23.470;2022-07-25T00:53:34;93168.19;;;24.12;80.60
6038;BME280;3047;42.600;23.470;2022-07-25T00:56:01;93179.09;;;24.15;80.84
6038;BME280;3047;42.600;23.470;2022-07-25T00:58:28;93169.22;;;24.09;80.91
6038;BME280;3047;42.600;23.470;2022-07-25T01:00:55;93176.03;;;24.10;80.12
6038;BME280;3047;42.600;23.470;2022-07-25T01:03:22;93170.63;;;24.13;79.08
6038;BME280;3047;42.600;23.470;2022-07-25T01:05:48;93173.00;;;24.05;79.52
6038;BME280;3047;42.600;23.470;2022-07-25T01:08:17;93177.91;;;24.08;79.49
6038;BME280;3047;42.600;23.470;2022-07-25T01:10:45;93164.00;;;24.00;79.96
6038;BME280;3047;42.600;23.470;2022-07-25T01:13:13;93166.44;;;24.01;80.05
6038;BME280;3047;42.600;23.470;2022-07-25T01:15:39;93169.38;;;23.97;80.65
6038;BME280;3047;42.600;23.470;2022-07-25T01:18:07;93147.84;;;23.86;80.53
6038;BME280;3047;42.600;23.470;2022-07-25T01:20:36;93169.25;;;23.98;80.67
6038;BME280;3047;42.600;23.470;2022-07-25T01:23:02;93172.19;;;23.93;81.70
6038;BME280;3047;42.600;23.470;2022-07-25T01:25:29;93172.47;;;23.90;81.57
6038;BME280;3047;42.600;23.470;2022-07-25T01:27:56;93186.44;;;23.77;83.05
6038;BME280;3047;42.600;23.470;2022-07-25T01:30:23;93181.28;;;23.77;82.58
6038;BME280;3047;42.600;23.470;2022-07-25T01:32:50;93180.59;;;23.75;82.35
6038;BME280;3047;42.600;23.470;2022-07-25T01:35:17;93176.59;;;23.71;83.54
6038;BME280;3047;42.600;23.470;2022-07-25T01:37:46;93175.53;;;23.73;82.45
6038;BME280;3047;42.600;23.470;2022-07-25T01:40:13;93166.88;;;23.74;82.50
6038;BME280;3047;42.600;23.470;2022-07-25T01:42:40;93157.47;;;23.73;82.23
6038;BME280;3047;42.600;23.470;2022-07-25T01:45:08;93170.50;;;23.72;82.05
6038;BME280;3047;42.600;23.470;2022-07-25T01:47:35;93101.16;;;23.24;82.11
6038;BME280;3047;42.600;23.470;2022-07-25T01:50:02;93149.63;;;23.52;81.90
6038;BME280;3047;42.600;23.470;2022-07-25T01:52:29;93185.03;;;23.73;83.26
6038;BME280;3047;42.600;23.470;2022-07-25T01:54:57;93194.28;;;23.64;82.81
6038;BME280;3047;42.600;23.470;2022-07-25T01:57:24;93194.28;;;23.64;82.65
6038;BME280;3047;42.600;23.470;2022-07-25T01:59:51;93186.53;;;23.64;82.43
6038;BME280;3047;42.600;23.470;2022-07-25T02:02:18;93181.03;;;23.57;82.47
6038;BME280;3047;42.600;23.470;2022-07-25T02:04:44;93182.56;;;23.60;82.50
6038;BME280;3047;42.600;23.470;2022-07-25T02:07:11;93183.75;;;23.67;82.60
6038;BME280;3047;42.600;23.470;2022-07-25T02:09:38;93186.78;;;23.72;83.76
6038;BME280;3047;42.600;23.470;2022-07-25T02:12:07;93179.75;;;23.63;84.22
6038;BME280;3047;42.600;23.470;2022-07-25T02:14:34;93187.84;;;23.69;84.26
6038;BME280;3047;42.600;23.470;2022-07-25T02:17:01;93182.56;;;23.60;83.05
6038;BME280;3047;42.600;23.470;2022-07-25T02:19:28;93156.53;;;23.40;83.04
6038;BME280;3047;42.600;23.470;2022-07-25T02:21:54;93184.66;;;23.55;83.20
6038;BME280;3047;42.600;23.470;2022-07-25T02:24:21;93179.50;;;23.43;83.18
6038;BME280;3047;42.600;23.470;2022-07-25T02:26:48;93174.22;;;23.45;83.26
6038;BME280;3047;42.600;23.470;2022-07-25T02:29:16;93184.81;;;23.42;83.39
6038;BME280;3047;42.600;23.470;2022-07-25T02:31:43;93171.19;;;23.29;83.89
6038;BME280;3047;42.600;23.470;2022-07-25T02:34:10;93142.16;;;23.15;83.47
6038;BME280;3047;42.600;23.470;2022-07-25T02:36:36;93134.88;;;22.98;83.78
6038;BME280;3047;42.600;23.470;2022-07-25T02:39:03;93085.19;;;22.62;84.33
6038;BME280;3047;42.600;23.470;2022-07-25T02:41:30;93172.63;;;23.22;83.91
6038;BME280;3047;42.600;23.470;2022-07-25T02:43:57;93170.72;;;23.12;84.75
6038;BME280;3047;42.600;23.470;2022-07-25T02:46:25;93168.84;;;23.14;84.57
6038;BME280;3047;42.600;23.470;2022-07-25T02:48:51;93165.47;;;23.14;84.25
6038;BME280;3047;42.600;23.470;2022-07-25T02:51:18;93126.78;;;22.91;83.88
6038;BME280;3047;42.600;23.470;2022-07-25T02:53:45;93171.53;;;23.24;83.22
6038;BME280;3047;42.600;23.470;2022-07-25T02:56:12;93166.38;;;23.24;83.21
6038;BME280;3047;42.600;23.470;2022-07-25T02:58:38;93132.41;;;22.97;83.50
6038;BME280;3047;42.600;23.470;2022-07-25T03:01:05;93172.47;;;23.12;83.96
6038;BME280;3047;42.600;23.470;2022-07-25T03:03:33;93176.81;;;23.11;83.82
6038;BME280;3047;42.600;23.470;2022-07-25T03:06:00;93150.56;;;22.95;83.15
6038;BME280;3047;42.600;23.470;2022-07-25T03:08:27;93177.53;;;23.13;82.86
6038;BME280;3047;42.600;23.470;2022-07-25T03:10:54;93173.28;;;23.12;82.80
6038;BME280;3047;42.600;23.470;2022-07-25T03:13:20;93178.47;;;23.24;82.35
6038;BME280;3047;42.600;23.470;2022-07-25T03:15:47;93179.03;;;23.16;82.69
6038;BME280;3047;42.600;23.470;2022-07-25T03:18:14;93181.16;;;23.22;82.38
6038;BME280;3047;42.600;23.470;2022-07-25T03:20:42;93181.38;;;23.19;82.09
6038;BME280;3047;42.600;23.470;2022-07-25T03:23:09;93182.91;;;23.33;81.28
6038;BME280;3047;42.600;23.470;2022-07-25T03:25:35;93174.13;;;23.24;81.39
6038;BME280;3047;42.600;23.470;2022-07-25T03:28:02;93156.66;;;23.16;81.83
6038;BME280;3047;42.600;23.470;2022-07-25T03:30:29;93175.28;;;23.20;82.30
6038;BME280;3047;42.600;23.470;2022-07-25T03:32:56;93184.19;;;23.16;82.72
6038;BME280;3047;42.600;23.470;2022-07-25T03:35:23;93191.81;;;23.17;82.48
6038;BME280;3047;42.600;23.470;2022-07-25T03:37:51;93191.44;;;23.33;81.63
6038;BME280;3047;42.600;23.470;2022-07-25T03:40:18;93151.31;;;22.84;83.02
6038;BME280;3047;42.600;23.470;2022-07-25T03:42:45;93187.25;;;23.10;83.17
6038;BME280;3047;42.600;23.470;2022-07-25T03:45:12;93162.66;;;23.06;82.96
6038;BME280;3047;42.600;23.470;2022-07-25T03:47:38;93177.28;;;23.16;82.89
6038;BME280;3047;42.600;23.470;2022-07-25T03:50:06;93157.72;;;23.03;82.52
6038;BME280;3047;42.600;23.470;2022-07-25T03:52:32;93186.53;;;23.08;82.83
6038;BME280;3047;42.600;23.470;2022-07-25T03:55:00;93152.44;;;22.93;81.85
6038;BME280;3047;42.600;23.470;2022-07-25T03:57:27;93186.91;;;23.26;81.42
6038;BME280;3047;42.600;23.470;2022-07-25T03:59:54;93162.53;;;23.07;81.77
6038;BME280;3047;42.600;23.470;2022-07-25T04:02:20;93185.50;;;23.22;81.32
6038;BME280;3047;42.600;23.470;2022-07-25T04:04:47;93155.94;;;22.92;82.05
6038;BME280;3047;42.600;23.470;2022-07-25T04:07:14;93139.75;;;22.90;81.93
6038;BME280;3047;42.600;23.470;2022-07-25T04:09:41;93187.13;;;23.23;80.66
6038;BME280;3047;42.600;23.470;2022-07-25T04:12:09;93178.47;;;23.24;79.83
6038;BME280;3047;42.600;23.470;2022-07-25T04:14:35;93183.03;;;23.20;80.14
6038;BME280;3047;42.600;23.470;2022-07-25T04:17:02;93189.59;;;23.24;80.18
6038;BME280;3047;42.600;23.470;2022-07-25T04:19:30;93180.00;;;23.26;79.70
6038;BME280;3047;42.600;23.470;2022-07-25T04:21:57;93183.25;;;23.28;79.71
6038;BME280;3047;42.600;23.470;2022-07-25T04:24:24;93180.59;;;23.30;79.60
6038;BME280;3047;42.600;23.470;2022-07-25T04:26:50;93178.81;;;23.30;79.27
6038;BME280;3047;42.600;23.470;2022-07-25T04:29:18;93176.56;;;23.37;79.77
6038;BME280;3047;42.600;23.470;2022-07-25T04:31:45;93158.06;;;23.32;78.83
6038;BME280;3047;42.600;23.470;2022-07-25T04:34:12;93176.72;;;23.58;77.14
6038;BME280;3047;42.600;23.470;2022-07-25T04:36:41;93172.25;;;23.60;77.34
6038;BME280;3047;42.600;23.470;2022-07-25T04:39:08;93175.19;;;23.66;76.60
6038;BME280;3047;42.600;23.470;2022-07-25T04:41:35;93180.91;;;23.59;76.49
6038;BME280;3047;42.600;23.470;2022-07-25T04:44:01;93184.44;;;23.69;75.77
6038;BME280;3047;42.600;23.470;2022-07-25T04:46:30;93171.88;;;23.64;76.54
6038;BME280;3047;42.600;23.470;2022-07-25T04:48:56;93176.25;;;23.75;75.69
6038;BME280;3047;42.600;23.470;2022-07-25T04:51:23;93182.56;;;23.82;75.04
6038;BME280;3047;42.600;23.470;2022-07-25T04:53:50;93177.03;;;23.87;75.99
6038;BME280;3047;42.600;23.470;2022-07-25T04:56:16;93177.94;;;23.97;74.41
6038;BME280;3047;42.600;23.470;2022-07-25T04:58:43;93179.91;;;24.05;74.46
6038;BME280;3047;42.600;23.470;2022-07-25T05:01:10;93174.84;;;24.14;72.61
6038;BME280;3047;42.600;23.470;2022-07-25T05:03:38;93170.84;;;24.22;72.88
6038;BME280;3047;42.600;23.470;2022-07-25T05:06:05;93162.50;;;24.18;73.19
6038;BME280;3047;42.600;23.470;2022-07-25T05:08:32;93160.63;;;24.20;72.25
6038;BME280;3047;42.600;23.470;2022-07-25T05:10:59;93180.03;;;24.47;72.48
6038;BME280;3047;42.600;23.470;2022-07-25T05:13:25;93189.50;;;24.57;71.79
6038;BME280;3047;42.600;23.470;2022-07-25T05:15:52;93182.22;;;24.83;70.52
6038;BME280;3047;42.600;23.470;2022-07-25T05:18:19;93189.41;;;24.80;70.58
6038;BME280;3047;42.600;23.470;2022-07-25T05:20:47;93181.69;;;24.89;70.14
6038;BME280;3047;42.600;23.470;2022-07-25T05:23:14;93195.38;;;25.01;69.57
6038;BME280;3047;42.600;23.470;2022-07-25T05:25:41;93177.84;;;25.05;69.86
6038;BME280;3047;42.600;23.470;2022-07-25T05:28:10;93120.47;;;24.80;68.72
6038;BME280;3047;42.600;23.470;2022-07-25T05:30:39;93164.50;;;25.21;69.48
6038;BME280;3047;42.600;23.470;2022-07-25T05:33:05;93175.63;;;25.52;68.10
6038;BME280;3047;42.600;23.470;2022-07-25T05:35:32;93195.72;;;25.69;66.89
6038;BME280;3047;42.600;23.470;2022-07-25T05:38:00;93152.59;;;25.79;65.91
6038;BME280;3047;42.600;23.470;2022-07-25T05:40:27;93187.66;;;26.03;65.74
6038;BME280;3047;42.600;23.470;2022-07-25T05:42:54;93170.63;;;26.00;65.08
6038;BME280;3047;42.600;23.470;2022-07-25T05:45:21;93188.66;;;26.21;64.73
6038;BME280;3047;42.600;23.470;2022-07-25T05:47:48;93160.56;;;26.07;65.26
6038;BME280;3047;42.600;23.470;2022-07-25T05:50:14;93187.72;;;26.32;65.05
6038;BME280;3047;42.600;23.470;2022-07-25T05:52:41;93184.84;;;26.35;64.80
6038;BME280;3047;42.600;23.470;2022-07-25T05:55:09;93186.53;;;26.46;64.94
6038;BME280;3047;42.600;23.470;2022-07-25T05:57:36;93184.19;;;26.43;64.63
6038;BME280;3047;42.600;23.470;2022-07-25T06:00:04;93167.81;;;26.32;63.43
6038;BME280;3047;42.600;23.470;2022-07-25T06:02:31;93180.50;;;26.45;63.84
6038;BME280;3047;42.600;23.470;2022-07-25T06:04:58;93183.94;;;26.46;64.22
6038;BME280;3047;42.600;23.470;2022-07-25T06:07:25;93190.75;;;26.47;65.00
6038;BME280;3047;42.600;23.470;2022-07-25T06:09:51;93187.34;;;26.46;64.64
6038;BME280;3047;42.600;23.470;2022-07-25T06:12:20;93177.91;;;26.45;64.37
6038;BME280;3047;42.600;23.470;2022-07-25T06:14:46;93179.44;;;26.48;63.92
6038;BME280;3047;42.600;23.470;2022-07-25T06:17:13;93184.22;;;26.62;62.29
6038;BME280;3047;42.600;23.470;2022-07-25T06:19:40;93183.66;;;26.58;62.89
6038;BME280;3047;42.600;23.470;2022-07-25T06:22:06;93153.63;;;26.36;62.96
6038;BME280;3047;42.600;23.470;2022-07-25T06:24:33;93185.97;;;26.61;63.50
6038;BME280;3047;42.600;23.470;2022-07-25T06:27:00;93176.28;;;26.63;63.06
6038;BME280;3047;42.600;23.470;2022-07-25T06:29:28;93184.06;;;26.63;62.93
6038;BME280;3047;42.600;23.470;2022-07-25T06:31:55;93173.28;;;26.68;60.98
6038;BME280;3047;42.600;23.470;2022-07-25T06:34:22;93176.56;;;26.80;62.32
6038;BME280;3047;42.600;23.470;2022-07-25T06:36:48;93182.69;;;26.79;61.85
6038;BME280;3047;42.600;23.470;2022-07-25T06:39:15;93177.09;;;26.83;61.65
6038;BME280;3047;42.600;23.470;2022-07-25T06:41:42;93174.50;;;26.83;61.92
6038;BME280;3047;42.600;23.470;2022-07-25T06:44:08;93176.25;;;26.93;61.70
6038;BME280;3047;42.600;23.470;2022-07-25T06:46:36;93175.84;;;26.97;61.40
6038;BME280;3047;42.600;23.470;2022-07-25T06:49:03;93173.66;;;27.02;59.56
6038;BME280;3047;42.600;23.470;2022-07-25T06:51:30;93178.03;;;26.92;61.00
6038;BME280;3047;42.600;23.470;2022-07-25T06:53:57;93171.75;;;26.95;60.56
6038;BME280;3047;42.600;23.470;2022-07-25T06:56:24;93170.38;;;27.00;59.76
6038;BME280;3047;42.600;23.470;2022-07-25T06:58:55;93173.50;;;27.04;60.25
6038;BME280;3047;42.600;23.470;2022-07-25T07:01:22;93168.19;;;27.15;60.48
6038;BME280;3047;42.600;23.470;2022-07-25T07:03:50;93173.09;;;27.08;60.52
6038;BME280;3047;42.600;23.470;2022-07-25T07:06:16;93171.22;;;27.10;59.02
6038;BME280;3047;42.600;23.470;2022-07-25T07:08:43;93176.91;;;27.14;58.91
6038;BME280;3047;42.600;23.470;2022-07-25T07:11:10;93176.91;;;27.14;58.87
6038;BME280;3047;42.600;23.470;2022-07-25T07:13:37;93172.56;;;27.15;60.41
6038;BME280;3047;42.600;23.470;2022-07-25T07:16:04;93172.41;;;27.16;58.13
6038;BME280;3047;42.600;23.470;2022-07-25T07:18:31;93157.53;;;27.18;58.19
6038;BME280;3047;42.600;23.470;2022-07-25T07:20:59;93174.09;;;27.45;57.85
6038;BME280;3047;42.600;23.470;2022-07-25T07:23:26;93156.13;;;27.33;57.57
6038;BME280;3047;42.600;23.470;2022-07-25T07:25:53;93166.75;;;27.40;57.63
6038;BME280;3047;42.600;23.470;2022-07-25T07:28:19;93172.03;;;27.48;57.59
6038;BME280;3047;42.600;23.470;2022-07-25T07:30:46;93122.66;;;27.30;56.65
6038;BME280;3047;42.600;23.470;2022-07-25T07:33:13;93166.69;;;27.59;56.27
6038;BME280;3047;42.600;23.470;2022-07-25T07:35:42;93168.41;;;27.69;58.12
6038;BME280;3047;42.600;23.470;2022-07-25T07:38:13;93163.63;;;27.74;55.70
6038;BME280;3047;42.600;23.470;2022-07-25T07:40:43;93148.41;;;27.79;55.48
6038;BME280;3047;42.600;23.470;2022-07-25T07:43:10;93096.47;;;27.61;56.06
6038;BME280;3047;42.600;23.470;2022-07-25T07:45:36;93117.50;;;27.85;55.94
6038;BME280;3047;42.600;23.470;2022-07-25T07:48:05;93148.50;;;28.32;55.11
6038;BME280;3047;42.600;23.470;2022-07-25T07:50:32;93158.91;;;28.50;54.28
6038;BME280;3047;42.600;23.470;2022-07-25T07:52:59;93150.97;;;28.70;53.24
6038;BME280;3047;42.600;23.470;2022-07-25T07:55:27;93126.94;;;28.76;51.85
6038;BME280;3047;42.600;23.470;2022-07-25T07:58:09;93122.13;;;28.81;53.13
6038;BME280;3047;42.600;23.470;2022-07-25T08:00:37;93111.16;;;28.95;50.59
6038;BME280;3047;42.600;23.470;2022-07-25T08:03:05;93156.16;;;29.40;49.37
6038;BME280;3047;42.600;23.470;2022-07-25T08:05:35;93150.00;;;29.49;48.44
6038;BME280;3047;42.600;23.470;2022-07-25T08:08:04;93118.03;;;29.56;48.07
6038;BME280;3047;42.600;23.470;2022-07-25T08:10:34;93131.50;;;29.94;47.64
6038;BME280;3047;42.600;23.470;2022-07-25T08:13:02;93126.63;;;29.99;47.25
6038;BME280;3047;42.600;23.470;2022-07-25T08:15:37;93154.41;;;30.41;46.60
6038;BME280;3047;42.600;23.470;2022-07-25T08:18:04;93154.28;;;30.67;44.98
6038;BME280;3047;42.600;23.470;2022-07-25T08:20:31;93136.50;;;30.63;44.19
6038;BME280;3047;42.600;23.470;2022-07-25T08:22:58;93153.16;;;30.86;45.58
6038;BME280;3047;42.600;23.470;2022-07-25T08:25:24;93153.31;;;31.09;43.31
6038;BME280;3047;42.600;23.470;2022-07-25T08:27:53;93135.22;;;31.08;43.67
6038;BME280;3047;42.600;23.470;2022-07-25T08:30:19;93118.09;;;30.97;42.52
6038;BME280;3047;42.600;23.470;2022-07-25T08:32:48;93149.53;;;31.28;43.40
6038;BME280;3047;42.600;23.470;2022-07-25T08:35:17;93116.44;;;31.20;44.29
6038;BME280;3047;42.600;23.470;2022-07-25T08:37:44;93096.84;;;31.24;42.51
6038;BME280;3047;42.600;23.470;2022-07-25T08:40:13;93147.13;;;31.74;40.59
6038;BME280;3047;42.600;23.470;2022-07-25T08:42:40;93141.53;;;31.93;39.95
6038;BME280;3047;42.600;23.470;2022-07-25T08:45:10;93128.94;;;31.97;39.99
6038;BME280;3047;42.600;23.470;2022-07-25T08:47:39;93145.91;;;32.01;40.33
6038;BME280;3047;42.600;23.470;2022-07-25T08:50:08;93142.16;;;32.27;40.04
6038;BME280;3047;42.600;23.470;2022-07-25T08:52:35;93148.38;;;32.25;40.06
6038;BME280;3047;42.600;23.470;2022-07-25T08:55:04;93138.34;;;32.06;39.95
6038;BME280;3047;42.600;23.470;2022-07-25T08:57:32;93143.53;;;32.14;39.76
6038;BME280;3047;42.600;23.470;2022-07-25T09:00:00;93144.75;;;32.27;40.91
6038;BME280;3047;42.600;23.470;2022-07-25T09:02:30;93116.53;;;32.22;40.48
6038;BME280;3047;42.600;23.470;2022-07-25T09:04:57;93121.81;;;32.14;38.91
6038;BME280;3047;42.600;23.470;2022-07-25T09:07:32;93145.44;;;32.20;39.53
6038;BME280;3047;42.600;23.470;2022-07-25T09:09:59;93148.66;;;32.31;40.28
6038;BME280;3047;42.600;23.470;2022-07-25T09:12:36;93128.34;;;32.41;38.11
6038;BME280;3047;42.600;23.470;2022-07-25T09:15:04;93115.13;;;32.42;38.45
6038;BME280;3047;42.600;23.470;2022-07-25T09:17:32;93127.69;;;32.85;38.09
6038;BME280;3047;42.600;23.470;2022-07-25T09:19:59;93133.38;;;33.11;37.41
6038;BME280;3047;42.600;23.470;2022-07-25T09:22:26;93116.66;;;33.12;37.87
6038;BME280;3047;42.600;23.470;2022-07-25T09:24:54;93131.75;;;33.25;37.00
6038;BME280;3047;42.600;23.470;2022-07-25T09:27:21;93122.56;;;33.14;35.66
6038;BME280;3047;42.600;23.470;2022-07-25T09:29:48;93134.09;;;33.20;37.58
6038;BME280;3047;42.600;23.470;2022-07-25T09:32:16;93130.16;;;33.39;37.21
6038;BME280;3047;42.600;23.470;2022-07-25T09:34:47;93124.31;;;33.52;37.88
6038;BME280;3047;42.600;23.470;2022-07-25T09:37:16;93112.44;;;33.41;37.32
6038;BME280;3047;42.600;23.470;2022-07-25T09:39:44;93117.06;;;33.68;36.52
6038;BME280;3047;42.600;23.470;2022-07-25T09:42:23;93123.72;;;33.86;36.50
6038;BME280;3047;42.600;23.470;2022-07-25T09:45:02;93132.94;;;33.82;35.37
6038;BME280;3047;42.600;23.470;2022-07-25T09:47:30;93081.66;;;33.43;35.86
6038;BME280;3047;42.600;23.470;2022-07-25T09:50:00;93100.28;;;33.48;34.73
6038;BME280;3047;42.600;23.470;2022-07-25T09:52:27;93118.78;;;33.76;35.66
6038;BME280;3047;42.600;23.470;2022-07-25T09:54:54;93087.00;;;33.50;35.20
6038;BME280;3047;42.600;23.470;2022-07-25T09:57:21;93119.03;;;33.81;35.78
6038;BME280;3047;42.600;23.470;2022-07-25T09:59:50;93110.06;;;33.90;35.22
6038;BME280;3047;42.600;23.470;2022-07-25T10:02:29;93118.56;;;33.92;36.85
6038;BME280;3047;42.600;23.470;2022-07-25T10:05:09;93114.34;;;33.91;34.85
6038;BME280;3047;42.600;23.470;2022-07-25T10:07:41;93042.84;;;33.46;34.43
6038;BME280;3047;42.600;23.470;2022-07-25T10:10:20;93052.81;;;33.72;34.25
6038;BME280;3047;42.600;23.470;2022-07-25T10:13:01;93046.66;;;33.80;35.12
6038;BME280;3047;42.600;23.470;2022-07-25T10:15:39;93112.22;;;34.16;35.01
6038;BME280;3047;42.600;23.470;2022-07-25T10:18:12;93092.28;;;34.01;35.30
6038;BME280;3047;42.600;23.470;2022-07-25T10:20:41;93061.59;;;33.65;34.82
6038;BME280;3047;42.600;23.470;2022-07-25T10:23:23;93099.03;;;33.95;35.14
6038;BME280;3047;42.600;23.470;2022-07-25T10:26:01;93105.41;;;33.71;35.67
6038;BME280;3047;42.600;23.470;2022-07-25T10:28:39;93077.13;;;33.37;36.51
6038;BME280;3047;42.600;23.470;2022-07-25T10:31:18;93068.38;;;33.44;34.81
6038;BME280;3047;42.600;23.470;2022-07-25T10:33:57;93105.78;;;33.38;35.00
6038;BME280;3047;42.600;23.470;2022-07-25T10:36:26;93099.97;;;33.28;34.68
6038;BME280;3047;42.600;23.470;2022-07-25T10:38:59;93071.47;;;33.18;32.53
6038;BME280;3047;42.600;23.470;2022-07-25T10:41:27;93053.41;;;33.23;34.00
6038;BME280;3047;42.600;23.470;2022-07-25T10:43:59;93085.47;;;33.55;33.87
6038;BME280;3047;42.600;23.470;2022-07-25T10:46:27;93084.94;;;33.45;34.31
6038;BME280;3047;42.600;23.470;2022-07-25T10:48:59;93083.19;;;33.22;34.93
6038;BME280;3047;42.600;23.470;2022-07-25T10:51:30;93078.22;;;33.13;34.66
6038;BME280;3047;42.600;23.470;2022-07-25T10:53:57;93042.53;;;32.82;34.64
6038;BME280;3047;42.600;23.470;2022-07-25T10:56:26;93043.56;;;32.58;36.47
6038;BME280;3047;42.600;23.470;2022-07-25T10:58:54;93071.34;;;32.97;34.63
6038;BME280;3047;42.600;23.470;2022-07-25T11:01:23;93069.63;;;33.04;33.48
6038;BME280;3047;42.600;23.470;2022-07-25T11:03:52;93023.69;;;33.02;34.95
6038;BME280;3047;42.600;23.470;2022-07-25T11:06:32;93066.13;;;33.71;34.19
6038;BME280;3047;42.600;23.470;2022-07-25T11:09:00;93064.03;;;33.66;32.77
6038;BME280;3047;42.600;23.470;2022-07-25T11:11:38;92941.75;;;33.01;32.14
6038;BME280;3047;42.600;23.470;2022-07-25T11:14:21;93060.81;;;33.86;32.74
6038;BME280;3047;42.600;23.470;2022-07-25T11:17:13;93033.31;;;33.75;33.35
6038;BME280;3047;42.600;23.470;2022-07-25T11:20:01;92999.56;;;33.87;33.31
6038;BME280;3047;42.600;23.470;2022-07-25T11:22:49;92995.75;;;33.89;32.83
6038;BME280;3047;42.600;23.470;2022-07-25T11:25:22;92872.44;;;32.97;31.27
6038;BME280;3047;42.600;23.470;2022-07-25T11:27:54;93033.84;;;34.07;31.81
6038;BME280;3047;42.600;23.470;2022-07-25T11:30:22;92940.66;;;33.61;30.73
6038;BME280;3047;42.600;23.470;2022-07-25T11:32:50;93023.06;;;34.16;31.58
6038;BME280;3047;42.600;23.470;2022-07-25T11:35:20;93048.00;;;34.49;31.00
6038;BME280;3047;42.600;23.470;2022-07-25T11:37:49;93050.66;;;34.55;29.93
6038;BME280;3047;42.600;23.470;2022-07-25T11:40:17;93049.69;;;34.56;29.71
6038;BME280;3047;42.600;23.470;2022-07-25T11:42:46;93049.66;;;34.35;30.97
6038;BME280;3047;42.600;23.470;2022-07-25T11:45:17;93030.97;;;34.02;30.56
6038;BME280;3047;42.600;23.470;2022-07-25T11:47:44;93021.16;;;34.04;31.34
6038;BME280;3047;42.600;23.470;2022-07-25T11:50:12;93030.88;;;33.95;31.19
6038;BME280;3047;42.600;23.470;2022-07-25T11:52:41;93038.34;;;33.77;30.33
6038;BME280;3047;42.600;23.470;2022-07-25T11:55:11;93038.69;;;33.52;30.95
6038;BME280;3047;42.600;23.470;2022-07-25T11:57:40;93024.25;;;33.12;31.61
6038;BME280;3047;42.600;23.470;2022-07-25T12:00:15;93025.91;;;32.75;31.22
6038;BME280;3047;42.600;23.470;2022-07-25T12:02:42;93036.88;;;32.56;31.97
6038;BME280;3047;42.600;23.470;2022-07-25T12:05:12;93022.66;;;32.35;32.52
6038;BME280;3047;42.600;23.470;2022-07-25T12:07:41;93030.69;;;32.34;32.26
6038;BME280;3047;42.600;23.470;2022-07-25T12:10:12;93027.50;;;32.46;32.60
6038;BME280;3047;42.600;23.470;2022-07-25T12:12:45;92977.78;;;32.09;33.09
6038;BME280;3047;42.600;23.470;2022-07-25T12:15:14;93016.09;;;32.39;32.95
6038;BME280;3047;42.600;23.470;2022-07-25T12:17:42;93020.84;;;32.36;33.15
6038;BME280;3047;42.600;23.470;2022-07-25T12:20:14;92972.78;;;31.99;32.33
6038;BME280;3047;42.600;23.470;2022-07-25T12:22:41;92997.34;;;31.90;33.60
6038;BME280;3047;42.600;23.470;2022-07-25T12:25:14;92983.63;;;31.65;33.45
6038;BME280;3047;42.600;23.470;2022-07-25T12:27:43;93009.03;;;31.71;34.14
6038;BME280;3047;42.600;23.470;2022-07-25T12:30:11;92955.56;;;31.36;34.35
6038;BME280;3047;42.600;23.470;2022-07-25T12:32:39;92931.03;;;31.06;34.29
6038;BME280;3047;42.600;23.470;2022-07-25T12:35:09;93007.22;;;31.48;33.82
6038;BME280;3047;42.600;23.470;2022-07-25T12:37:36;92901.66;;;30.81;33.53
6038;BME280;3047;42.600;23.470;2022-07-25T12:40:04;92943.50;;;30.95;33.21
6038;BME280;3047;42.600;23.470;2022-07-25T12:42:33;92951.97;;;30.97;33.77
6038;BME280;3047;42.600;23.470;2022-07-25T12:44:59;93001.91;;;31.34;35.12
6038;BME280;3047;42.600;23.470;2022-07-25T12:47:26;92995.22;;;31.31;34.27
6038;BME280;3047;42.600;23.470;2022-07-25T12:49:53;92996.19;;;31.30;35.93
6038;BME280;3047;42.600;23.470;2022-07-25T12:52:21;92990.66;;;31.25;35.33
6038;BME280;3047;42.600;23.470;2022-07-25T12:54:47;92992.44;;;31.24;35.90
6038;BME280;3047;42.600;23.470;2022-07-25T12:57:14;92991.34;;;31.11;36.61
6038;BME280;3047;42.600;23.470;2022-07-25T12:59:43;92998.88;;;31.06;35.23
6038;BME280;3047;42.600;23.470;2022-07-25T13:02:10;92983.88;;;31.08;35.52
6038;BME280;3047;42.600;23.470;2022-07-25T13:04:37;92967.03;;;30.63;36.54
6038;BME280;3047;42.600;23.470;2022-07-25T13:07:04;92983.03;;;30.60;37.07
6038;BME280;3047;42.600;23.470;2022-07-25T13:09:31;92991.16;;;30.57;37.38
6038;BME280;3047;42.600;23.470;2022-07-25T13:11:58;92949.00;;;30.37;37.47
6038;BME280;3047;42.600;23.470;2022-07-25T13:14:25;92986.28;;;30.53;38.24
6038;BME280;3047;42.600;23.470;2022-07-25T13:16:53;92984.97;;;30.49;37.65